Time;durP1;ratioP1;P1;durP2;ratioP2;P2;SDS_P1;SDS_P2;PMS_P1;PMS_P2;Temp;Humidity;BMP_temperature;BMP_pressure;BME280_temperature;BME280_humidity;BME280_pressure;Samples;Min_cycle;Max_cycle;Signal;HPM_P1;HPM_P2
2023/12/28 00:00:53;;;;;;;3.80;2.10;;;10.70;99.90;;;;;;5056160;28;20037;-64
2023/12/28 00:03:19;;;;;;;2.38;1.58;;;10.70;99.90;;;;;;5056659;28;20171;-63
2023/12/28 00:05:45;;;;;;;3.90;2.03;;;10.60;99.90;;;;;;5072613;28;20171;-62
2023/12/28 00:08:11;;;;;;;2.50;1.65;;;10.60;99.90;;;;;;5056549;28;20033;-62
2023/12/28 00:10:37;;;;;;;3.85;1.90;;;10.60;99.90;;;;;;5072489;28;20029;-63
2023/12/28 00:13:03;;;;;;;2.88;1.80;;;10.70;99.90;;;;;;5056636;28;20037;-62
2023/12/28 00:15:29;;;;;;;4.22;1.95;;;10.60;99.90;;;;;;5056890;28;20032;-62
2023/12/28 00:17:54;;;;;;;3.08;1.90;;;10.60;99.90;;;;;;5056628;28;20025;-62
2023/12/28 00:20:20;;;;;;;3.58;2.10;;;10.60;99.90;;;;;;5056583;28;20033;-64
2023/12/28 00:22:46;;;;;;;3.38;1.75;;;10.60;99.90;;;;;;5055982;28;20415;-63
2023/12/28 00:25:12;;;;;;;3.22;1.70;;;10.60;99.90;;;;;;5056562;28;20033;-65
2023/12/28 00:27:38;;;;;;;3.65;2.03;;;10.60;99.90;;;;;;5056692;28;20032;-67
2023/12/28 00:30:05;;;;;;;3.88;1.98;;;10.60;99.90;;;;;;5055568;28;20053;-65
2023/12/28 00:32:31;;;;;;;2.17;1.70;;;10.60;99.90;;;;;;5056431;28;20036;-63
2023/12/28 00:34:57;;;;;;;2.67;1.55;;;10.60;99.90;;;;;;5039160;28;20033;-62
2023/12/28 00:37:23;;;;;;;3.72;2.10;;;10.60;99.90;;;;;;5056384;28;20030;-62
2023/12/28 00:39:50;;;;;;;4.72;2.05;;;10.50;99.90;;;;;;5055705;28;20025;-62
2023/12/28 00:42:19;;;;;;;3.15;1.90;;;10.50;99.90;;;;;;5058085;28;20079;-63
2023/12/28 00:44:44;;;;;;;2.80;1.55;;;10.50;99.90;;;;;;5060299;28;20083;-62
2023/12/28 00:47:10;;;;;;;4.07;1.80;;;10.50;99.90;;;;;;5060145;28;20037;-62
2023/12/28 00:49:37;;;;;;;2.42;1.67;;;10.60;99.90;;;;;;5060105;28;20025;-61
2023/12/28 00:52:03;;;;;;;3.00;2.05;;;10.60;99.90;;;;;;5060040;28;20420;-62
2023/12/28 00:54:30;;;;;;;2.30;1.60;;;10.60;99.90;;;;;;5075966;28;20029;-61
2023/12/28 00:56:55;;;;;;;2.45;1.52;;;10.60;99.90;;;;;;5059356;28;20037;-63
2023/12/28 00:59:21;;;;;;;3.88;1.70;;;10.60;99.90;;;;;;5026128;28;20032;-62
2023/12/28 01:01:47;;;;;;;2.15;1.75;;;10.60;99.90;;;;;;5042664;28;20434;-61
2023/12/28 01:04:13;;;;;;;2.15;1.40;;;10.70;99.90;;;;;;5059828;28;20119;-64
2023/12/28 01:06:39;;;;;;;3.38;1.85;;;10.70;99.90;;;;;;5059218;28;20068;-64
2023/12/28 01:09:06;;;;;;;2.10;1.60;;;10.70;99.90;;;;;;5059243;28;20033;-63
2023/12/28 01:11:32;;;;;;;5.55;2.08;;;10.70;99.90;;;;;;5059638;28;20087;-64
2023/12/28 01:13:59;;;;;;;3.30;2.03;;;10.70;99.90;;;;;;5059713;28;20033;-63
2023/12/28 01:16:24;;;;;;;4.30;1.70;;;10.70;99.90;;;;;;5059715;28;20044;-64
2023/12/28 01:18:50;;;;;;;4.70;1.73;;;10.70;99.90;;;;;;5059785;28;20392;-63
2023/12/28 01:21:17;;;;;;;3.83;1.70;;;10.70;99.90;;;;;;5059582;28;20388;-62
2023/12/28 01:23:43;;;;;;;6.00;2.20;;;10.70;99.90;;;;;;5059603;28;20316;-64
2023/12/28 01:26:16;;;;;;;4.95;1.80;;;10.80;99.90;;;;;;5059557;28;20029;-62
2023/12/28 01:28:43;;;;;;;5.60;1.67;;;10.80;99.90;;;;;;5058579;28;20074;-64
2023/12/28 01:31:09;;;;;;;2.67;2.05;;;10.80;99.90;;;;;;5059407;28;20415;-64
2023/12/28 01:33:35;;;;;;;2.72;1.77;;;10.80;99.90;;;;;;5075107;28;20029;-64
2023/12/28 01:36:01;;;;;;;4.25;2.38;;;10.80;99.90;;;;;;5058641;28;20033;-64
2023/12/28 01:38:27;;;;;;;3.03;1.88;;;10.80;99.90;;;;;;5075152;28;20404;-63
2023/12/28 01:40:53;;;;;;;3.38;1.83;;;10.70;99.90;;;;;;5059283;28;20036;-66
2023/12/28 01:43:19;;;;;;;3.30;1.70;;;10.70;99.90;;;;;;5059169;28;20037;-65
2023/12/28 01:45:45;;;;;;;3.08;1.67;;;10.70;99.90;;;;;;5059107;28;20025;-65
2023/12/28 01:48:12;;;;;;;3.85;1.90;;;10.70;99.90;;;;;;5075334;28;20381;-63
2023/12/28 01:50:39;;;;;;;5.35;1.83;;;10.70;99.90;;;;;;5059003;28;20032;-65
2023/12/28 01:53:06;;;;;;;4.30;2.05;;;10.70;99.90;;;;;;5057852;28;20033;-65
2023/12/28 01:55:34;;;;;;;5.00;1.95;;;10.70;99.90;;;;;;5074745;28;20112;-64
2023/12/28 01:58:00;;;;;;;2.97;1.80;;;10.70;99.90;;;;;;5074533;28;20028;-63
2023/12/28 02:00:26;;;;;;;3.90;1.80;;;10.60;99.90;;;;;;5074727;28;20047;-64
2023/12/28 02:02:52;;;;;;;4.00;1.67;;;10.70;99.90;;;;;;5058022;28;20041;-63
2023/12/28 02:05:18;;;;;;;3.10;2.08;;;10.60;99.90;;;;;;5074642;28;20029;-63
2023/12/28 02:07:44;;;;;;;2.75;1.55;;;10.60;99.90;;;;;;5057882;28;20132;-64
2023/12/28 02:10:10;;;;;;;4.63;1.80;;;10.60;99.90;;;;;;5058077;28;20316;-63
2023/12/28 02:12:36;;;;;;;5.45;1.90;;;10.60;99.90;;;;;;5074449;28;20128;-65
2023/12/28 02:15:02;;;;;;;5.57;2.08;;;10.60;99.90;;;;;;5073932;28;20106;-63
2023/12/28 02:17:50;;;;;;;2.63;1.63;;;10.70;99.90;;;;;;5058539;28;20086;-63
2023/12/28 02:20:19;;;;;;;4.15;1.70;;;10.60;99.90;;;;;;5058471;28;20032;-64
2023/12/28 02:22:46;;;;;;;3.05;1.67;;;10.70;99.90;;;;;;5058291;28;20087;-64
2023/12/28 02:25:13;;;;;;;2.60;1.67;;;10.60;99.90;;;;;;5057677;28;20049;-63
2023/12/28 02:27:41;;;;;;;3.08;1.60;;;10.60;99.90;;;;;;5057648;28;20045;-62
2023/12/28 02:30:09;;;;;;;3.20;1.90;;;10.60;99.90;;;;;;5058206;28;20503;-63
2023/12/28 02:32:42;;;;;;;4.03;1.70;;;10.60;99.90;;;;;;5058058;28;20044;-65
2023/12/28 02:35:25;;;;;;;4.25;1.67;;;10.70;99.90;;;;;;5058237;28;20074;-64
2023/12/28 02:37:55;;;;;;;1.98;1.40;;;10.60;99.90;;;;;;5074072;28;20040;-66
2023/12/28 02:40:23;;;;;;;3.97;2.00;;;10.60;99.90;;;;;;5058191;28;20359;-63
2023/12/28 02:42:49;;;;;;;2.70;1.67;;;10.60;99.90;;;;;;5057392;28;20138;-64
2023/12/28 02:45:15;;;;;;;2.88;1.90;;;10.60;99.90;;;;;;5058064;28;20112;-62
2023/12/28 02:47:41;;;;;;;2.35;1.70;;;10.70;99.90;;;;;;5073842;28;20036;-62
2023/12/28 02:50:07;;;;;;;3.00;1.40;;;10.70;99.90;;;;;;5057170;28;20045;-64
2023/12/28 02:52:33;;;;;;;6.68;2.08;;;10.70;99.90;;;;;;5057138;28;20041;-64
2023/12/28 02:54:59;;;;;;;3.20;1.42;;;10.70;99.90;;;;;;5057830;28;20300;-66
2023/12/28 02:57:24;;;;;;;4.03;1.60;;;10.70;99.90;;;;;;5073500;28;20096;-62
2023/12/28 02:59:50;;;;;;;4.68;1.50;;;10.70;99.90;;;;;;5057814;28;20367;-64
2023/12/28 03:02:16;;;;;;;4.97;2.00;;;10.70;99.90;;;;;;5057622;28;20029;-64
2023/12/28 03:04:42;;;;;;;5.20;1.58;;;10.70;99.90;;;;;;5057337;28;20029;-64
2023/12/28 03:07:08;;;;;;;3.63;1.40;;;10.70;99.90;;;;;;5057580;28;20036;-64
2023/12/28 03:09:34;;;;;;;3.85;1.60;;;10.70;99.90;;;;;;5057638;28;20064;-64
2023/12/28 03:12:00;;;;;;;3.47;1.77;;;10.70;99.90;;;;;;5057487;28;20368;-66
2023/12/28 03:14:26;;;;;;;4.57;1.35;;;10.80;99.90;;;;;;5057479;28;20032;-64
2023/12/28 03:16:52;;;;;;;5.18;1.70;;;10.70;99.90;;;;;;5057570;28;20032;-65
2023/12/28 03:19:18;;;;;;;2.85;1.40;;;10.70;99.90;;;;;;5073319;28;20033;-64
2023/12/28 03:21:45;;;;;;;4.43;1.58;;;10.70;99.90;;;;;;5057252;28;20116;-63
2023/12/28 03:24:11;;;;;;;6.15;1.88;;;10.70;99.90;;;;;;5057236;28;20123;-64
2023/12/28 03:26:40;;;;;;;4.63;1.65;;;10.70;99.90;;;;;;5073112;28;20403;-63
2023/12/28 03:29:07;;;;;;;7.22;2.00;;;10.70;99.90;;;;;;5056298;28;20049;-63
2023/12/28 03:31:32;;;;;;;5.47;1.70;;;10.80;99.90;;;;;;5056280;28;20033;-62
2023/12/28 03:33:59;;;;;;;5.22;1.80;;;10.70;99.90;;;;;;5057176;28;20067;-62
2023/12/28 03:36:25;;;;;;;6.03;1.42;;;10.80;99.90;;;;;;5056245;28;20117;-63
2023/12/28 03:38:52;;;;;;;6.22;1.50;;;10.80;99.90;;;;;;5057023;28;20079;-63
2023/12/28 03:41:19;;;;;;;4.50;1.35;;;10.80;99.90;;;;;;5056936;28;20041;-64
2023/12/28 03:43:45;;;;;;;5.85;1.70;;;10.80;99.90;;;;;;5072793;28;20320;-62
2023/12/28 03:46:12;;;;;;;4.97;1.70;;;10.80;99.90;;;;;;5056803;28;20067;-63
2023/12/28 03:48:37;;;;;;;3.58;1.70;;;10.90;99.90;;;;;;5056933;28;20029;-63
2023/12/28 03:51:04;;;;;;;3.55;1.50;;;10.80;99.90;;;;;;5056988;28;20039;-63
2023/12/28 03:53:33;;;;;;;4.18;1.58;;;10.80;99.90;;;;;;5072674;28;20116;-63
2023/12/28 03:55:59;;;;;;;2.92;1.50;;;10.80;99.90;;;;;;5056135;28;20029;-64
2023/12/28 03:58:25;;;;;;;6.95;3.65;;;10.90;99.90;;;;;;5056728;28;20059;-64
2023/12/28 04:00:52;;;;;;;6.85;1.55;;;10.90;99.90;;;;;;5056738;28;20348;-63
2023/12/28 04:03:18;;;;;;;4.47;1.60;;;10.90;99.90;;;;;;5055939;28;20124;-63
2023/12/28 04:05:44;;;;;;;5.20;1.77;;;10.80;99.90;;;;;;5056704;28;20131;-63
2023/12/28 04:08:10;;;;;;;5.07;1.55;;;10.80;99.90;;;;;;5072559;28;20316;-63
2023/12/28 04:10:39;;;;;;;4.40;1.50;;;10.70;99.90;;;;;;5056868;28;20028;-63
2023/12/28 04:13:05;;;;;;;9.00;1.55;;;10.70;99.90;;;;;;5072589;28;20033;-64
2023/12/28 04:15:31;;;;;;;4.43;1.60;;;10.70;99.90;;;;;;5056585;28;20032;-63
2023/12/28 04:17:57;;;;;;;3.95;1.50;;;10.70;99.90;;;;;;5075590;28;20265;-63
2023/12/28 04:20:23;;;;;;;6.32;1.70;;;10.70;99.90;;;;;;5060801;28;20036;-64
2023/12/28 04:22:50;;;;;;;6.00;1.70;;;10.70;99.90;;;;;;5076297;28;20029;-62
2023/12/28 04:25:16;;;;;;;2.85;1.48;;;10.70;99.90;;;;;;5059810;28;20052;-63
2023/12/28 04:27:42;;;;;;;5.22;1.42;;;10.70;99.90;;;;;;5059969;28;20300;-63
2023/12/28 04:30:11;;;;;;;5.22;1.40;;;10.70;99.90;;;;;;5060435;28;20320;-63
2023/12/28 04:32:38;;;;;;;5.00;1.38;;;10.70;99.90;;;;;;5060479;28;20414;-64
2023/12/28 04:35:04;;;;;;;5.47;1.38;;;10.80;99.90;;;;;;5060534;28;20033;-64
2023/12/28 04:37:30;;;;;;;8.05;1.60;;;10.80;99.90;;;;;;5059608;28;20037;-68
2023/12/28 04:39:57;;;;;;;6.80;1.50;;;10.90;99.90;;;;;;5059598;28;20068;-63
2023/12/28 04:42:23;;;;;;;3.47;1.50;;;10.80;99.90;;;;;;5042884;28;20371;-64
2023/12/28 04:44:48;;;;;;;4.05;1.52;;;10.90;99.90;;;;;;5060473;28;20116;-63
2023/12/28 04:47:14;;;;;;;4.35;1.75;;;10.80;99.90;;;;;;5060185;28;20120;-63
2023/12/28 04:49:40;;;;;;;6.32;1.70;;;10.90;99.90;;;;;;5060243;28;20359;-63
2023/12/28 04:52:06;;;;;;;4.38;1.30;;;10.90;99.90;;;;;;5059241;28;20041;-62
2023/12/28 04:54:33;;;;;;;7.00;1.35;;;10.90;99.90;;;;;;5059349;28;20076;-64
2023/12/28 04:56:59;;;;;;;2.97;1.42;;;10.90;99.90;;;;;;5059930;28;20393;-62
2023/12/28 04:59:25;;;;;;;5.60;1.55;;;10.80;99.90;;;;;;5059346;28;20420;-62
2023/12/28 05:01:51;;;;;;;8.68;1.65;;;10.80;99.90;;;;;;5059908;28;20033;-62
2023/12/28 05:04:17;;;;;;;5.18;1.42;;;10.80;99.90;;;;;;5059185;28;20162;-61
2023/12/28 05:06:43;;;;;;;7.63;1.48;;;10.80;99.90;;;;;;5059365;28;20120;-63
2023/12/28 05:09:09;;;;;;;5.18;1.50;;;10.80;99.90;;;;;;5059104;28;20301;-61
2023/12/28 05:11:34;;;;;;;6.68;1.30;;;10.80;99.90;;;;;;5058921;28;20128;-61
2023/12/28 05:14:00;;;;;;;11.38;1.67;;;10.80;99.90;;;;;;5059788;28;20021;-62
2023/12/28 05:16:26;;;;;;;8.73;1.45;;;10.90;99.90;;;;;;5059550;28;20095;-64
2023/12/28 05:18:52;;;;;;;5.03;1.48;;;10.90;99.90;;;;;;5042433;28;20040;-63
2023/12/28 05:21:18;;;;;;;8.40;1.95;;;10.90;99.90;;;;;;5059567;28;20029;-65
2023/12/28 05:23:44;;;;;;;8.63;1.38;;;10.90;99.90;;;;;;5075331;28;20347;-63
2023/12/28 05:26:09;;;;;;;6.38;1.40;;;10.90;99.90;;;;;;5059466;28;20032;-63
2023/12/28 05:28:35;;;;;;;5.70;1.48;;;10.80;99.90;;;;;;5059225;28;20041;-63
2023/12/28 05:31:01;;;;;;;7.10;1.27;;;10.80;99.90;;;;;;5059105;28;20064;-65
2023/12/28 05:33:27;;;;;;;5.32;1.42;;;10.70;99.90;;;;;;5058480;28;20047;-63
2023/12/28 05:35:53;;;;;;;6.80;1.50;;;10.70;99.90;;;;;;5059244;28;20090;-63
2023/12/28 05:38:19;;;;;;;8.70;1.60;;;10.70;99.90;;;;;;5059174;28;20056;-67
2023/12/28 05:40:45;;;;;;;6.20;1.63;;;10.70;99.90;;;;;;5058475;28;20327;-65
2023/12/28 05:43:11;;;;;;;7.68;1.60;;;10.70;99.90;;;;;;5058314;28;20066;-65
2023/12/28 05:45:37;;;;;;;7.60;1.30;;;10.60;99.90;;;;;;5059097;28;20061;-64
2023/12/28 05:48:03;;;;;;;7.68;1.40;;;10.60;99.90;;;;;;5059026;28;20405;-63
2023/12/28 05:50:29;;;;;;;5.97;1.30;;;10.60;99.90;;;;;;5059012;28;20028;-64
2023/12/28 05:52:55;;;;;;;5.95;1.48;;;10.50;99.90;;;;;;5058185;28;20037;-66
2023/12/28 05:55:21;;;;;;;7.65;1.65;;;10.50;99.90;;;;;;5058902;28;20029;-65
2023/12/28 05:57:47;;;;;;;9.85;1.50;;;10.50;99.90;;;;;;5058206;28;20040;-63
2023/12/28 06:00:14;;;;;;;7.13;1.58;;;10.50;99.90;;;;;;5058777;28;20182;-64
2023/12/28 06:02:41;;;;;;;9.45;1.50;;;10.50;99.90;;;;;;5041845;28;20052;-64
2023/12/28 06:05:07;;;;;;;6.65;1.45;;;10.50;99.90;;;;;;5057912;28;20045;-60
2023/12/28 06:07:33;;;;;;;10.63;1.77;;;10.60;99.90;;;;;;5057920;28;20029;-62
2023/12/28 06:09:59;;;;;;;6.15;1.20;;;10.60;99.90;;;;;;5058680;28;20047;-62
2023/12/28 06:12:25;;;;;;;12.63;1.70;;;10.60;99.90;;;;;;5057626;28;20040;-60
2023/12/28 06:14:51;;;;;;;7.05;1.70;;;10.60;99.90;;;;;;5058577;28;20047;-62
2023/12/28 06:17:18;;;;;;;7.97;1.40;;;10.70;99.90;;;;;;5057688;28;20106;-68
2023/12/28 06:19:44;;;;;;;10.50;1.70;;;10.70;99.30;;;;;;5058456;28;20303;-66
2023/12/28 06:22:10;;;;;;;8.70;1.33;;;10.70;97.60;;;;;;5058380;28;20351;-63
2023/12/28 06:24:40;;;;;;;7.75;1.52;;;10.70;99.20;;;;;;5074319;28;20321;-61
2023/12/28 06:27:06;;;;;;;6.95;1.60;;;10.70;99.40;;;;;;5058258;28;20037;-62
2023/12/28 06:29:32;;;;;;;9.75;1.40;;;10.60;99.90;;;;;;5057355;28;20057;-63
2023/12/28 06:31:57;;;;;;;7.38;1.75;;;10.60;99.90;;;;;;5058136;28;20272;-65
2023/12/28 06:34:23;;;;;;;9.05;1.75;;;10.60;99.90;;;;;;5058173;28;20033;-63
2023/12/28 06:36:49;;;;;;;5.38;1.20;;;10.50;99.90;;;;;;5057370;28;20079;-64
2023/12/28 06:39:15;;;;;;;8.02;1.52;;;10.50;99.90;;;;;;5057424;28;20288;-65
2023/12/28 06:41:41;;;;;;;9.73;1.77;;;10.50;99.90;;;;;;5057998;28;20044;-65
2023/12/28 06:44:07;;;;;;;10.63;1.67;;;10.50;99.90;;;;;;5057926;28;20052;-64
2023/12/28 06:46:32;;;;;;;9.18;1.40;;;10.40;99.90;;;;;;5057174;28;20044;-64
2023/12/28 06:48:58;;;;;;;9.52;1.50;;;10.40;99.90;;;;;;5057947;28;20104;-63
2023/12/28 06:51:25;;;;;;;8.82;1.88;;;10.40;99.90;;;;;;5073840;28;20138;-64
2023/12/28 06:53:51;;;;;;;8.15;1.45;;;10.40;99.90;;;;;;5057772;28;20186;-65
2023/12/28 06:56:17;;;;;;;7.65;1.63;;;10.40;99.90;;;;;;5057790;28;20057;-66
2023/12/28 06:58:43;;;;;;;4.28;1.17;;;10.40;99.90;;;;;;5057745;28;20028;-63
2023/12/28 07:01:08;;;;;;;14.50;2.13;;;10.40;99.90;;;;;;5057689;28;20037;-65
2023/12/28 07:03:34;;;;;;;8.32;1.35;;;10.40;99.90;;;;;;5057663;28;20316;-65
2023/12/28 07:06:02;;;;;;;8.02;1.38;;;10.40;99.90;;;;;;5057641;28;20087;-64
2023/12/28 07:08:28;;;;;;;8.48;1.70;;;10.40;99.90;;;;;;5057488;28;20021;-63
2023/12/28 07:10:54;;;;;;;11.55;2.17;;;10.40;99.90;;;;;;5057663;28;20348;-63
2023/12/28 07:13:20;;;;;;;5.30;1.25;;;10.40;99.90;;;;;;5057509;28;20053;-63
2023/12/28 07:15:46;;;;;;;10.48;1.42;;;10.40;99.90;;;;;;5056935;28;20059;-63
2023/12/28 07:18:12;;;;;;;10.57;1.63;;;10.40;99.90;;;;;;5057383;28;20033;-62
2023/12/28 07:20:38;;;;;;;8.23;1.58;;;10.40;99.90;;;;;;5057147;28;20092;-66
2023/12/28 07:23:03;;;;;;;10.85;2.10;;;10.40;99.90;;;;;;5056960;28;20029;-62
2023/12/28 07:25:29;;;;;;;10.48;1.90;;;10.40;99.90;;;;;;5057188;28;20116;-63
2023/12/28 07:27:55;;;;;;;11.43;1.10;;;10.30;99.90;;;;;;5056808;28;20079;-66
2023/12/28 07:30:21;;;;;;;10.25;1.55;;;10.30;99.90;;;;;;5072620;28;20072;-64
2023/12/28 07:32:46;;;;;;;11.85;1.80;;;10.30;99.90;;;;;;5056732;28;20105;-63
2023/12/28 07:35:13;;;;;;;10.85;1.58;;;10.20;99.90;;;;;;5056876;28;20110;-63
2023/12/28 07:37:39;;;;;;;7.68;1.50;;;10.30;99.90;;;;;;5056828;28;20024;-64
2023/12/28 07:40:05;;;;;;;10.60;1.60;;;10.30;99.90;;;;;;5039672;28;20025;-68
2023/12/28 07:42:31;;;;;;;8.07;1.25;;;10.40;99.90;;;;;;5056650;28;20033;-68
2023/12/28 07:44:57;;;;;;;12.05;1.50;;;10.50;98.40;;;;;;5056933;28;20123;-67
2023/12/28 07:47:22;;;;;;;7.72;1.58;;;10.50;96.20;;;;;;5056728;28;20025;-63
2023/12/28 07:49:48;;;;;;;12.10;1.83;;;10.50;98.10;;;;;;5056762;28;20028;-65
2023/12/28 07:52:14;;;;;;;13.27;1.75;;;10.50;98.70;;;;;;5055621;28;20033;-62
2023/12/28 07:54:40;;;;;;;11.90;1.65;;;10.50;97.50;;;;;;5056888;28;20061;-65
2023/12/28 07:57:05;;;;;;;10.18;1.80;;;10.50;98.40;;;;;;5056627;28;20412;-68
2023/12/28 07:59:31;;;;;;;11.20;1.42;;;10.50;99.90;;;;;;5055944;28;20058;-64
2023/12/28 08:01:57;;;;;;;8.82;1.33;;;10.50;99.90;;;;;;5056690;28;20044;-64
2023/12/28 08:04:23;;;;;;;7.72;1.58;;;10.50;99.90;;;;;;5055879;28;20099;-62
2023/12/28 08:06:49;;;;;;;11.25;1.70;;;10.50;99.90;;;;;;5039578;28;20029;-65
2023/12/28 08:09:15;;;;;;;9.93;1.33;;;10.50;99.90;;;;;;5055761;28;20032;-65
2023/12/28 08:11:41;;;;;;;11.32;1.55;;;10.40;99.90;;;;;;5072410;28;20412;-65
2023/12/28 08:14:07;;;;;;;11.68;1.67;;;10.40;99.90;;;;;;5056243;28;20037;-65
2023/12/28 08:16:34;;;;;;;8.63;1.73;;;10.40;99.90;;;;;;5055452;28;20104;-64
2023/12/28 08:19:01;;;;;;;12.25;1.50;;;10.40;99.90;;;;;;5072303;28;20087;-66
2023/12/28 08:21:27;;;;;;;10.93;1.50;;;10.40;99.90;;;;;;5056327;28;20037;-65
2023/12/28 08:23:53;;;;;;;10.50;1.75;;;10.40;99.90;;;;;;5056337;28;20035;-63
2023/12/28 08:26:19;;;;;;;11.77;1.35;;;10.30;99.90;;;;;;5072011;28;20040;-64
2023/12/28 08:28:45;;;;;;;10.48;1.40;;;10.30;99.90;;;;;;5072114;28;20036;-63
2023/12/28 08:31:12;;;;;;;6.72;1.30;;;10.30;99.90;;;;;;5056397;28;20040;-66
2023/12/28 08:33:40;;;;;;;13.00;1.75;;;10.30;99.90;;;;;;5056299;28;20321;-63
2023/12/28 08:36:07;;;;;;;14.75;1.45;;;10.40;99.20;;;;;;5056325;28;20400;-65
2023/12/28 08:38:33;;;;;;;12.35;1.60;;;10.40;99.10;;;;;;5056288;28;20033;-65
2023/12/28 08:40:59;;;;;;;8.52;1.35;;;10.50;96.30;;;;;;5056279;28;20425;-64
2023/12/28 08:43:24;;;;;;;4.95;1.40;;;10.50;96.30;;;;;;5056109;28;20036;-65
2023/12/28 08:45:50;;;;;;;14.77;2.13;;;10.50;91.80;;;;;;5055388;28;20029;-64
2023/12/28 08:48:16;;;;;;;11.60;1.60;;;10.50;93.30;;;;;;5056317;28;20076;-64
2023/12/28 08:50:42;;;;;;;13.27;2.05;;;10.60;91.40;;;;;;5056169;28;20116;-65
2023/12/28 08:53:07;;;;;;;13.90;1.85;;;10.50;91.10;;;;;;5055296;28;20048;-65
2023/12/28 08:55:33;;;;;;;12.82;2.75;;;10.50;92.30;;;;;;5056145;28;20040;-66
2023/12/28 08:57:59;;;;;;;11.30;1.33;;;10.50;93.70;;;;;;5055941;28;20091;-66
2023/12/28 09:00:25;;;;;;;10.63;1.67;;;10.50;94.10;;;;;;5072042;28;20037;-66
2023/12/28 09:02:51;;;;;;;12.15;2.08;;;10.50;92.60;;;;;;5057052;28;20284;-65
2023/12/28 09:05:17;;;;;;;8.50;1.35;;;10.60;92.70;;;;;;5059687;28;20400;-64
2023/12/28 09:07:43;;;;;;;11.23;1.70;;;10.60;94.00;;;;;;5059785;28;20029;-65
2023/12/28 09:10:10;;;;;;;13.55;1.98;;;10.60;91.90;;;;;;5059671;28;20286;-67
2023/12/28 09:12:36;;;;;;;10.77;1.83;;;10.60;88.40;;;;;;5058691;28;20024;-66
2023/12/28 09:15:06;;;;;;;10.05;1.55;;;10.60;90.50;;;;;;5059652;28;20025;-66
2023/12/28 09:17:32;;;;;;;12.98;2.00;;;10.70;92.00;;;;;;5059609;28;20423;-64
2023/12/28 09:19:58;;;;;;;10.18;1.40;;;10.70;91.80;;;;;;5075543;28;20029;-64
2023/12/28 09:22:24;;;;;;;14.43;2.20;;;10.70;90.50;;;;;;5075549;28;20466;-66
2023/12/28 09:24:50;;;;;;;11.40;1.92;;;10.80;91.80;;;;;;5059509;28;20041;-65
2023/12/28 09:27:15;;;;;;;10.98;1.80;;;10.80;85.50;;;;;;5059569;28;20315;-63
2023/12/28 09:29:41;;;;;;;8.45;1.27;;;10.80;91.00;;;;;;5075168;28;20080;-64
2023/12/28 09:32:07;;;;;;;9.85;1.63;;;10.80;83.90;;;;;;5059268;28;20415;-66
2023/12/28 09:34:33;;;;;;;8.70;1.70;;;10.90;80.60;;;;;;5059281;28;20029;-62
2023/12/28 09:36:59;;;;;;;11.43;1.52;;;10.90;85.40;;;;;;5059363;28;20061;-64
2023/12/28 09:39:25;;;;;;;13.70;1.90;;;10.90;79.40;;;;;;5058507;28;20120;-62
2023/12/28 09:42:02;;;;;;;12.88;2.33;;;10.90;76.00;;;;;;5059288;28;20432;-65
2023/12/28 09:44:30;;;;;;;14.30;2.30;;;11.00;70.70;;;;;;5059224;28;20053;-64
2023/12/28 09:46:57;;;;;;;6.22;1.50;;;11.00;72.70;;;;;;5059225;28;20021;-65
2023/12/28 09:49:23;;;;;;;8.65;1.63;;;11.10;65.80;;;;;;5059096;28;20033;-64
2023/12/28 09:51:49;;;;;;;15.55;2.00;;;11.10;64.40;;;;;;5059031;28;20075;-66
2023/12/28 09:54:15;;;;;;;7.82;1.60;;;11.20;63.00;;;;;;5059054;28;20033;-64
2023/12/28 09:56:41;;;;;;;13.25;1.83;;;11.20;59.90;;;;;;5058937;28;20029;-63
2023/12/28 09:59:07;;;;;;;12.82;2.35;;;11.20;61.20;;;;;;5058959;28;20063;-67
2023/12/28 10:01:36;;;;;;;11.07;1.75;;;11.20;51.90;;;;;;5058834;28;20090;-64
2023/12/28 10:04:05;;;;;;;10.55;1.83;;;11.20;58.90;;;;;;5058823;28;20300;-67
2023/12/28 10:06:30;;;;;;;10.77;1.70;;;11.20;51.00;;;;;;5058804;28;20029;-62
2023/12/28 10:08:56;;;;;;;15.00;2.17;;;11.20;52.50;;;;;;5058629;28;20037;-66
2023/12/28 10:11:23;;;;;;;15.65;1.95;;;11.10;54.00;;;;;;5058649;28;20052;-64
2023/12/28 10:13:49;;;;;;;11.45;1.60;;;11.10;56.40;;;;;;5057223;28;20167;-64
2023/12/28 10:16:16;;;;;;;15.27;2.40;;;11.10;55.00;;;;;;5058137;28;20108;-62
2023/12/28 10:18:45;;;;;;;12.18;1.85;;;11.10;50.90;;;;;;5058478;28;20411;-63
2023/12/28 10:21:11;;;;;;;10.85;1.95;;;11.10;50.60;;;;;;5057845;28;20312;-62
2023/12/28 10:23:40;;;;;;;13.90;2.05;;;11.20;51.00;;;;;;5057637;28;20048;-63
2023/12/28 10:26:07;;;;;;;13.13;1.85;;;11.30;40.00;;;;;;5057660;28;20045;-64
2023/12/28 10:28:37;;;;;;;9.68;1.48;;;11.30;40.50;;;;;;5058357;28;20041;-65
2023/12/28 10:31:02;;;;;;;13.27;1.70;;;11.30;33.10;;;;;;5057365;28;20067;-62
2023/12/28 10:33:37;;;;;;;15.80;1.80;;;11.30;43.40;;;;;;5058137;28;20116;-62
2023/12/28 10:36:08;;;;;;;12.40;1.77;;;11.40;40.10;;;;;;5058068;28;20096;-62
2023/12/28 10:38:37;;;;;;;10.90;1.88;;;11.40;39.90;;;;;;5057342;28;20413;-65
2023/12/28 10:41:07;;;;;;;8.27;1.55;;;11.50;29.10;;;;;;5074035;28;20033;-66
2023/12/28 10:43:42;;;;;;;12.10;1.73;;;11.60;23.60;;;;;;5073953;28;20033;-63
2023/12/28 10:46:09;;;;;;;14.68;2.25;;;11.50;26.30;;;;;;5074097;28;20040;-65
2023/12/28 10:48:41;;;;;;;10.73;1.88;;;11.60;27.10;;;;;;5057342;28;20036;-63
2023/12/28 10:51:10;;;;;;;8.82;1.65;;;11.60;27.40;;;;;;5057945;28;20035;-66
2023/12/28 10:53:54;;;;;;;12.23;2.25;;;11.50;27.80;;;;;;5073812;28;20165;-62
2023/12/28 10:56:24;;;;;;;12.15;1.73;;;11.50;37.50;;;;;;5057902;28;20392;-65
2023/12/28 10:58:58;;;;;;;11.93;1.63;;;11.60;29.20;;;;;;5073629;28;20024;-62
2023/12/28 11:01:35;;;;;;;10.55;1.75;;;11.60;32.80;;;;;;5057802;28;20336;-62
2023/12/28 11:04:36;;;;;;;10.73;1.77;;;11.40;41.40;;;;;;5057668;28;20025;-62
2023/12/28 11:07:03;;;;;;;13.02;2.75;;;11.40;44.50;;;;;;5057714;28;20048;-66
2023/12/28 11:09:31;;;;;;;11.57;2.17;;;11.30;45.40;;;;;;5057530;28;20044;-68
2023/12/28 11:12:00;;;;;;;13.85;2.08;;;11.20;53.80;;;;;;5057578;28;20055;-62
2023/12/28 11:14:30;;;;;;;12.23;1.50;;;11.30;52.10;;;;;;5057569;28;20165;-69
2023/12/28 11:17:00;;;;;;;10.70;1.95;;;11.30;48.50;;;;;;5057487;28;20036;-63
2023/12/28 11:19:27;;;;;;;14.25;1.83;;;11.30;45.30;;;;;;5057553;28;20040;-64
2023/12/28 11:21:56;;;;;;;10.73;1.98;;;11.30;49.60;;;;;;5057358;28;20028;-67
2023/12/28 11:24:22;;;;;;;12.27;1.77;;;11.30;39.10;;;;;;5056669;28;20029;-63
2023/12/28 11:26:55;;;;;;;13.68;2.45;;;11.40;38.90;;;;;;5057311;28;20040;-67
2023/12/28 11:29:22;;;;;;;13.93;1.83;;;11.40;42.20;;;;;;5056949;28;20037;-66
2023/12/28 11:31:56;;;;;;;16.13;2.10;;;11.40;37.90;;;;;;5057134;28;20086;-63
2023/12/28 11:34:29;;;;;;;15.48;2.08;;;11.40;30.40;;;;;;5057108;28;20108;-63
2023/12/28 11:36:57;;;;;;;10.23;2.03;;;11.40;36.20;;;;;;5057215;28;20077;-63
2023/12/28 11:39:34;;;;;;;9.73;1.58;;;11.50;39.40;;;;;;5057092;28;20119;-64
2023/12/28 11:42:04;;;;;;;15.90;2.55;;;11.60;24.00;;;;;;5057063;28;20032;-64
2023/12/28 11:44:30;;;;;;;9.75;1.58;;;11.50;29.10;;;;;;5057013;28;20186;-64
2023/12/28 11:46:57;;;;;;;19.02;2.10;;;11.60;28.80;;;;;;5056962;28;20028;-61
2023/12/28 11:49:28;;;;;;;11.25;1.45;;;11.60;24.10;;;;;;5056779;28;20021;-62
2023/12/28 11:51:58;;;;;;;13.23;1.92;;;11.60;24.50;;;;;;5040033;28;20044;-62
2023/12/28 11:54:25;;;;;;;9.75;1.90;;;11.70;25.40;;;;;;5056468;28;20384;-66
2023/12/28 11:56:52;;;;;;;12.10;1.67;;;11.70;28.80;;;;;;5072809;28;20106;-67
2023/12/28 11:59:19;;;;;;;9.60;1.98;;;11.60;24.50;;;;;;5056788;28;20300;-69
2023/12/28 12:01:53;;;;;;;8.25;1.85;;;11.50;34.30;;;;;;5039298;28;20404;-65
2023/12/28 12:04:20;;;;;;;11.80;2.03;;;11.50;36.70;;;;;;5055595;28;20372;-62
2023/12/28 12:06:46;;;;;;;17.40;2.03;;;11.50;36.10;;;;;;5056054;28;20328;-62
2023/12/28 12:09:13;;;;;;;14.50;1.73;;;11.50;35.50;;;;;;5056743;28;20286;-63
2023/12/28 12:11:39;;;;;;;12.85;2.20;;;11.60;51.50;;;;;;5056751;28;20344;-65
2023/12/28 12:14:11;;;;;;;11.57;2.15;;;11.50;35.80;;;;;;5056523;28;20075;-66
2023/12/28 12:16:38;;;;;;;11.85;1.55;;;11.50;42.10;;;;;;5056772;28;20311;-67
2023/12/28 12:19:07;;;;;;;15.30;1.90;;;11.60;34.40;;;;;;5056639;28;20084;-68
2023/12/28 12:21:34;;;;;;;11.85;1.52;;;11.60;29.80;;;;;;5056690;28;20112;-66
2023/12/28 12:24:03;;;;;;;13.38;2.08;;;11.50;38.70;;;;;;5056575;28;20032;-66
2023/12/28 12:26:30;;;;;;;11.73;2.13;;;11.50;43.10;;;;;;5056613;28;20392;-66
2023/12/28 12:28:56;;;;;;;15.15;2.42;;;11.50;46.40;;;;;;5072366;28;20072;-68
2023/12/28 12:31:22;;;;;;;12.57;2.08;;;11.60;38.10;;;;;;5056647;28;20068;-67
2023/12/28 12:33:48;;;;;;;12.45;2.00;;;11.60;35.90;;;;;;5056408;28;20036;-66
2023/12/28 12:36:15;;;;;;;12.00;2.15;;;11.70;39.70;;;;;;5056269;28;20021;-65
2023/12/28 12:38:41;;;;;;;11.18;1.80;;;11.70;23.90;;;;;;5041733;28;20301;-65
2023/12/28 12:41:07;;;;;;;16.90;2.00;;;11.60;29.30;;;;;;5076369;28;20041;-64